Time;durP1;ratioP1;P1;durP2;ratioP2;P2;SDS_P1;SDS_P2;PMS_P1;PMS_P2;Temp;Humidity;BMP_temperature;BMP_pressure;BME280_temperature;BME280_humidity;BME280_pressure;Samples;Min_cycle;Max_cycle;Signal;HPM_P1;HPM_P2
2023/04/01 00:00:37;;;;;;;0.37;0.37;;;7.80;99.90;;;;;;5068393;28;20212;-90
2023/04/01 00:03:09;;;;;;;0.43;0.40;;;7.70;99.90;;;;;;5074674;28;20218;-91
2023/04/01 00:05:41;;;;;;;0.30;0.30;;;7.80;99.90;;;;;;5058142;28;20204;-89
2023/04/01 00:08:13;;;;;;;0.30;0.30;;;7.80;99.90;;;;;;5075175;28;20199;-89
2023/04/01 00:10:45;;;;;;;0.73;0.30;;;7.80;99.90;;;;;;5073189;28;20256;-89
2023/04/01 00:13:19;;;;;;;0.20;0.20;;;7.80;99.90;;;;;;5071177;28;20200;-89
2023/04/01 00:15:53;;;;;;;0.20;0.20;;;7.80;99.90;;;;;;5079606;28;20287;-91
2023/04/01 00:18:27;;;;;;;0.20;0.20;;;7.70;99.90;;;;;;5072509;28;20215;-89
2023/04/01 00:21:00;;;;;;;0.20;0.10;;;7.80;99.90;;;;;;5067600;28;20234;-88
2023/04/01 00:23:32;;;;;;;0.33;0.30;;;7.90;99.90;;;;;;5062274;28;20208;-89
2023/04/01 00:26:03;;;;;;;0.27;0.27;;;8.00;99.90;;;;;;5071404;28;20209;-89
2023/04/01 00:28:37;;;;;;;0.30;0.30;;;8.00;99.90;;;;;;5077117;28;20215;-89
2023/04/01 00:31:12;;;;;;;0.50;0.30;;;8.10;99.90;;;;;;5093458;28;20207;-88
2023/04/01 00:33:45;;;;;;;0.30;0.30;;;8.10;99.90;;;;;;5093511;28;20203;-90
2023/04/01 00:36:18;;;;;;;0.20;0.20;;;8.10;99.90;;;;;;5078198;28;20199;-87
2023/04/01 00:38:51;;;;;;;0.60;0.40;;;8.10;99.90;;;;;;5066861;28;20212;-89
2023/04/01 00:41:23;;;;;;;0.27;0.20;;;8.10;99.90;;;;;;5059488;28;20299;-89
2023/04/01 00:43:55;;;;;;;0.20;0.20;;;8.30;99.90;;;;;;5073535;28;20269;-89
2023/04/01 00:46:28;;;;;;;0.23;0.23;;;8.20;99.90;;;;;;5070207;28;20204;-89
2023/04/01 00:49:01;;;;;;;0.30;0.30;;;8.40;99.90;;;;;;5081224;28;20242;-88
2023/04/01 00:51:35;;;;;;;0.63;0.30;;;8.30;99.90;;;;;;5067149;28;20254;-89
2023/04/01 00:54:07;;;;;;;0.10;0.10;;;8.20;99.90;;;;;;5083213;28;20230;-88
2023/04/01 00:56:42;;;;;;;1.07;0.30;;;8.10;99.90;;;;;;5078709;27;20722;-89
2023/04/01 00:59:19;;;;;;;0.40;0.40;;;8.00;99.90;;;;;;5075962;28;20205;-90
2023/04/01 01:01:54;;;;;;;0.53;0.40;;;8.00;99.90;;;;;;5062960;28;20266;-90
2023/04/01 01:04:28;;;;;;;2.10;0.30;;;7.80;99.90;;;;;;5074922;28;20217;-89
2023/04/01 01:07:16;;;;;;;2.10;0.93;;;8.00;99.90;;;;;;5056744;28;20196;-90
2023/04/01 01:09:54;;;;;;;0.30;0.30;;;8.10;99.90;;;;;;5071442;28;20226;-89
2023/04/01 01:12:32;;;;;;;0.30;0.23;;;8.00;99.90;;;;;;5071240;28;20204;-91
2023/04/01 01:15:13;;;;;;;0.27;0.23;;;7.90;99.90;;;;;;5071318;28;20208;-91
2023/04/01 01:18:06;;;;;;;0.50;0.33;;;7.70;99.90;;;;;;5072757;28;20208;-89
2023/04/01 01:21:11;;;;;;;0.57;0.40;;;7.70;99.90;;;;;;5081463;28;20195;-90
2023/04/01 01:24:00;;;;;;;0.67;0.40;;;7.70;99.90;;;;;;5091544;28;20220;-90
2023/04/01 01:26:53;;;;;;;0.70;0.20;;;7.60;99.90;;;;;;5070879;28;20237;-89
2023/04/01 01:30:05;;;;;;;0.40;0.37;;;7.60;99.90;;;;;;5054238;28;20216;-88
2023/04/01 01:33:12;;;;;;;0.50;0.40;;;7.50;99.90;;;;;;5067560;28;20246;-88
2023/04/01 01:35:51;;;;;;;0.37;0.30;;;7.40;99.90;;;;;;5048293;28;20261;-87
2023/04/01 01:38:27;;;;;;;0.40;0.40;;;7.30;99.90;;;;;;5066639;28;20227;-88
2023/04/01 01:40:59;;;;;;;1.17;0.53;;;7.30;99.90;;;;;;5070417;28;20546;-88
2023/04/01 01:43:35;;;;;;;0.40;0.40;;;7.20;99.90;;;;;;5068585;28;20263;-87
2023/04/01 01:46:11;;;;;;;1.07;0.50;;;7.20;99.90;;;;;;5093260;28;20207;-89
2023/04/01 01:48:45;;;;;;;0.80;0.47;;;7.20;99.90;;;;;;5084335;28;20282;-88
2023/04/01 01:51:20;;;;;;;0.70;0.50;;;7.10;99.90;;;;;;5075420;28;20214;-88
2023/04/01 01:53:51;;;;;;;0.63;0.50;;;7.10;99.90;;;;;;5075663;28;20210;-88
2023/04/01 01:56:26;;;;;;;0.40;0.40;;;7.10;99.90;;;;;;5074915;28;20347;-90
2023/04/01 01:59:02;;;;;;;0.83;0.40;;;7.10;99.90;;;;;;5066611;28;20253;-91
2023/04/01 02:01:37;;;;;;;0.73;0.50;;;7.00;99.90;;;;;;5064481;28;20265;-90
2023/04/01 02:04:11;;;;;;;0.30;0.30;;;7.00;99.90;;;;;;5060345;28;20238;-92
2023/04/01 02:06:52;;;;;;;0.40;0.40;;;6.90;99.90;;;;;;5075233;28;20203;-91
2023/04/01 02:09:24;;;;;;;0.57;0.40;;;6.90;99.90;;;;;;5056919;28;20665;-91
2023/04/01 02:12:01;;;;;;;0.83;0.43;;;6.90;99.90;;;;;;5070486;28;20296;-90
2023/04/01 02:14:41;;;;;;;0.30;0.30;;;6.80;99.90;;;;;;5076884;28;20218;-90
2023/04/01 02:17:17;;;;;;;1.00;0.70;;;6.80;99.90;;;;;;5065485;28;20195;-91
2023/04/01 02:19:52;;;;;;;0.30;0.30;;;6.80;99.90;;;;;;5081277;28;20202;-89
2023/04/01 02:22:28;;;;;;;0.27;0.27;;;6.70;99.90;;;;;;5096997;28;20637;-90
2023/04/01 02:25:03;;;;;;;0.40;0.30;;;6.60;99.90;;;;;;5087165;28;20211;-92
2023/04/01 02:27:36;;;;;;;0.23;0.23;;;6.60;99.90;;;;;;5080374;28;20233;-92
2023/04/01 02:30:10;;;;;;;1.63;0.37;;;6.50;99.90;;;;;;5077962;28;20246;-91
2023/04/01 02:35:24;;;;;;;0.20;0.20;;;6.50;99.90;;;;;;4755963;22;10001449;-96
2023/04/01 02:40:44;;;;;;;0.73;0.30;;;6.50;99.90;;;;;;5555061;23;20300;-94
2023/04/01 02:43:17;;;;;;;0.53;0.47;;;6.40;99.90;;;;;;5009688;28;20226;-93
2023/04/01 02:45:49;;;;;;;0.60;0.30;;;6.40;99.90;;;;;;5003151;28;20206;-93
2023/04/01 02:48:21;;;;;;;0.50;0.30;;;6.40;99.90;;;;;;5001812;28;20206;-93
2023/04/01 02:53:51;;;;;;;0.40;0.40;;;6.40;99.90;;;;;;5287745;23;20308;-96
2023/04/01 03:07:15;;;;;;;0.30;0.30;;;6.40;99.90;;;;;;5000111;23;20258;-94
2023/04/01 03:09:47;;;;;;;0.83;0.70;;;6.30;99.90;;;;;;4996235;28;20210;-95
2023/04/01 03:15:17;;;;;;;1.90;1.10;;;6.30;99.90;;;;;;4981239;28;20214;-95
2023/04/01 03:17:48;;;;;;;0.80;0.70;;;6.30;99.90;;;;;;4981982;28;20283;-96
2023/04/01 03:20:21;;;;;;;0.60;0.60;;;6.30;99.90;;;;;;4984007;28;20221;-94
2023/04/01 03:23:11;;;;;;;1.77;0.80;;;6.30;99.90;;;;;;4992723;28;20229;-96
2023/04/01 03:28:20;;;;;;;2.20;0.40;;;6.30;99.90;;;;;;5149439;23;20609;-96
2023/04/01 03:33:27;;;;;;;0.60;0.50;;;6.20;99.90;;;;;;5774045;23;20297;-95
2023/04/01 03:41:18;;;;;;;4.70;0.63;;;6.30;99.90;;;;;;5183233;23;20238;-95
2023/04/01 03:43:51;;;;;;;0.97;0.57;;;6.30;99.90;;;;;;5002229;28;20238;-96
2023/04/01 03:46:33;;;;;;;0.80;0.60;;;6.30;99.90;;;;;;4995560;28;20210;-96
2023/04/01 03:49:11;;;;;;;0.47;0.40;;;6.30;99.90;;;;;;4989753;28;20214;-95
2023/04/01 03:51:44;;;;;;;1.23;0.60;;;6.20;99.90;;;;;;4993880;28;20300;-93
2023/04/01 03:54:15;;;;;;;0.77;0.40;;;6.20;99.90;;;;;;4991724;28;20367;-96
2023/04/01 03:56:49;;;;;;;0.47;0.30;;;6.20;99.90;;;;;;4988019;28;20221;-95
2023/04/01 03:59:21;;;;;;;0.40;0.40;;;6.20;99.90;;;;;;4999168;28;20217;-94
2023/04/01 04:01:53;;;;;;;0.60;0.40;;;6.20;99.90;;;;;;5001939;28;20217;-95
2023/04/01 04:04:25;;;;;;;1.70;0.60;;;6.20;99.90;;;;;;5008930;28;20237;-94
2023/04/01 04:06:58;;;;;;;0.80;0.50;;;6.20;99.90;;;;;;5011934;28;20217;-96
2023/04/01 04:09:33;;;;;;;0.40;0.40;;;6.20;99.90;;;;;;5472015;22;20238;-92
2023/04/01 04:12:09;;;;;;;0.53;0.40;;;6.10;99.90;;;;;;4979301;28;20230;-91
2023/04/01 04:14:40;;;;;;;0.87;0.53;;;6.10;99.90;;;;;;4975731;28;20210;-91
2023/04/01 04:17:16;;;;;;;0.43;0.40;;;6.00;99.90;;;;;;4978541;28;20211;-91
2023/04/01 04:19:47;;;;;;;2.17;0.50;;;6.10;99.90;;;;;;4978034;28;20206;-91
2023/04/01 04:22:18;;;;;;;0.83;0.40;;;6.00;99.90;;;;;;4979675;28;20211;-92
2023/04/01 04:24:49;;;;;;;1.00;0.50;;;6.00;99.90;;;;;;4980676;28;20618;-91
2023/04/01 04:27:24;;;;;;;1.53;0.60;;;6.00;99.90;;;;;;4977853;28;20242;-91
2023/04/01 04:29:55;;;;;;;0.60;0.60;;;6.00;99.90;;;;;;4963181;28;20212;-94
2023/04/01 04:32:27;;;;;;;0.60;0.60;;;6.00;99.90;;;;;;4984743;28;20570;-91
2023/04/01 04:35:00;;;;;;;0.80;0.50;;;6.00;99.90;;;;;;5001894;28;20218;-92
2023/04/01 04:37:31;;;;;;;0.87;0.57;;;6.00;99.90;;;;;;5012700;28;20210;-89
2023/04/01 04:40:03;;;;;;;0.90;0.70;;;6.00;99.90;;;;;;5013447;28;20234;-93
2023/04/01 04:42:37;;;;;;;1.07;0.60;;;6.00;99.90;;;;;;4986444;28;20243;-93
2023/04/01 04:45:10;;;;;;;0.70;0.60;;;6.00;99.90;;;;;;4974151;28;20218;-92
2023/04/01 04:47:42;;;;;;;1.20;0.60;;;5.90;99.90;;;;;;4979433;28;20207;-91
2023/04/01 04:50:15;;;;;;;1.60;0.50;;;5.90;99.90;;;;;;4980942;28;20196;-93
2023/04/01 04:52:49;;;;;;;1.03;0.60;;;5.90;99.90;;;;;;4970221;28;20727;-92
2023/04/01 04:55:21;;;;;;;0.30;0.30;;;5.90;99.90;;;;;;4975441;28;20203;-95
2023/04/01 04:57:55;;;;;;;0.73;0.50;;;5.90;99.90;;;;;;4973395;28;20259;-93
2023/04/01 05:00:27;;;;;;;0.40;0.30;;;5.90;99.90;;;;;;4983326;28;20202;-92
2023/04/01 05:02:59;;;;;;;1.47;0.50;;;5.90;99.90;;;;;;4989072;28;20306;-94
2023/04/01 05:05:32;;;;;;;2.80;0.50;;;5.80;99.90;;;;;;4984632;28;20208;-93
2023/04/01 05:08:05;;;;;;;0.77;0.50;;;5.80;99.90;;;;;;4985887;28;20195;-93
2023/04/01 05:10:36;;;;;;;0.30;0.30;;;5.90;99.90;;;;;;4985437;28;20203;-91
2023/04/01 05:13:10;;;;;;;0.70;0.50;;;5.90;99.90;;;;;;4971880;28;20211;-91
2023/04/01 05:15:42;;;;;;;2.67;0.60;;;5.90;99.90;;;;;;4974470;28;20694;-91
2023/04/01 05:18:15;;;;;;;1.00;0.63;;;6.00;99.90;;;;;;4984438;28;20218;-92
2023/04/01 05:20:51;;;;;;;0.73;0.70;;;6.10;99.90;;;;;;4977506;28;20211;-91
2023/04/01 05:23:24;;;;;;;0.30;0.30;;;6.10;99.90;;;;;;4989944;28;20219;-90
2023/04/01 05:25:56;;;;;;;1.00;0.40;;;6.10;99.90;;;;;;4988421;28;20202;-90
2023/04/01 05:28:31;;;;;;;0.40;0.30;;;6.10;99.90;;;;;;4987282;28;20192;-92
2023/04/01 05:31:04;;;;;;;0.40;0.40;;;6.10;99.90;;;;;;4993319;28;20191;-91
2023/04/01 05:33:36;;;;;;;0.97;0.37;;;6.20;99.90;;;;;;4993927;28;20189;-91
2023/04/01 05:36:13;;;;;;;1.27;0.90;;;6.10;99.90;;;;;;4982480;28;20218;-91
2023/04/01 05:38:45;;;;;;;1.60;0.50;;;6.10;99.90;;;;;;4975642;28;20206;-92
2023/04/01 05:41:17;;;;;;;0.77;0.40;;;6.10;99.90;;;;;;4972991;28;20207;-92
2023/04/01 05:43:51;;;;;;;2.50;0.50;;;6.00;99.90;;;;;;4970793;28;20273;-91
2023/04/01 05:46:23;;;;;;;0.60;0.60;;;5.90;99.90;;;;;;4982407;28;20192;-92
2023/04/01 05:48:55;;;;;;;1.40;0.67;;;5.80;99.90;;;;;;4990660;28;20190;-93
2023/04/01 05:51:27;;;;;;;0.60;0.60;;;5.80;99.90;;;;;;4990574;28;20199;-92
2023/04/01 05:53:58;;;;;;;0.97;0.43;;;5.80;99.90;;;;;;4989500;28;20187;-91
2023/04/01 05:56:30;;;;;;;0.37;0.37;;;5.70;99.90;;;;;;4996118;28;20334;-92
2023/04/01 05:59:04;;;;;;;1.43;0.50;;;5.70;99.90;;;;;;4986459;28;20214;-91
2023/04/01 06:01:35;;;;;;;0.60;0.40;;;5.70;99.90;;;;;;4971586;28;20230;-93
2023/04/01 06:04:07;;;;;;;0.70;0.40;;;5.70;99.90;;;;;;4981856;28;20285;-93
2023/04/01 06:06:39;;;;;;;1.10;0.40;;;5.70;99.90;;;;;;4980696;28;20621;-92
2023/04/01 06:09:16;;;;;;;0.87;0.47;;;5.70;99.90;;;;;;4978211;28;20218;-91
2023/04/01 06:12:08;;;;;;;1.70;0.50;;;5.80;99.90;;;;;;4973545;28;20207;-92
2023/04/01 06:14:52;;;;;;;0.33;0.33;;;5.80;99.90;;;;;;4971971;28;20210;-92
2023/04/01 06:17:35;;;;;;;0.40;0.40;;;5.80;99.90;;;;;;4960152;28;20724;-92
2023/04/01 06:20:14;;;;;;;0.87;0.33;;;5.90;99.90;;;;;;4975525;28;20214;-91
2023/04/01 06:23:00;;;;;;;0.40;0.30;;;5.90;99.90;;;;;;4976871;28;20226;-91
2023/04/01 06:25:55;;;;;;;0.17;0.17;;;5.90;99.90;;;;;;4976371;28;20619;-90
2023/04/01 06:28:53;;;;;;;0.80;0.30;;;5.90;99.90;;;;;;4973158;28;20227;-92
2023/04/01 06:31:46;;;;;;;0.70;0.40;;;5.90;99.90;;;;;;4973777;28;20218;-91
2023/04/01 06:34:51;;;;;;;0.20;0.20;;;5.90;99.90;;;;;;4965606;28;20208;-91
2023/04/01 06:37:47;;;;;;;0.40;0.33;;;5.90;99.90;;;;;;4971600;28;20211;-91
2023/04/01 06:40:52;;;;;;;0.60;0.40;;;5.90;99.90;;;;;;4968551;28;20539;-91
2023/04/01 06:43:32;;;;;;;0.40;0.40;;;5.80;99.90;;;;;;4974563;28;20203;-91
2023/04/01 06:46:11;;;;;;;0.63;0.50;;;5.80;99.90;;;;;;4975026;28;20217;-92
2023/04/01 06:48:58;;;;;;;0.40;0.40;;;5.80;99.90;;;;;;4977174;28;20589;-92
2023/04/01 06:51:37;;;;;;;0.50;0.50;;;5.80;99.90;;;;;;4977190;28;20202;-93
2023/04/01 06:54:14;;;;;;;0.50;0.50;;;5.80;99.90;;;;;;4973084;28;20217;-94
2023/04/01 06:56:49;;;;;;;0.70;0.70;;;5.70;99.90;;;;;;4990445;28;20210;-92
2023/04/01 06:59:24;;;;;;;0.60;0.60;;;5.70;99.90;;;;;;4986864;28;20226;-92
2023/04/01 07:02:00;;;;;;;1.03;0.60;;;5.70;99.90;;;;;;4980816;28;20222;-94
2023/04/01 07:04:38;;;;;;;0.53;0.53;;;5.70;99.90;;;;;;4976318;28;20234;-93
2023/04/01 07:07:18;;;;;;;0.80;0.70;;;5.70;99.90;;;;;;4967818;28;20210;-92
2023/04/01 07:09:54;;;;;;;2.23;0.77;;;5.80;99.90;;;;;;4973441;28;20651;-91
2023/04/01 07:12:35;;;;;;;1.00;0.70;;;5.80;99.90;;;;;;4975496;28;20207;-91
2023/04/01 07:15:18;;;;;;;0.60;0.50;;;5.80;99.90;;;;;;4969186;28;20255;-92
2023/04/01 07:17:54;;;;;;;0.73;0.60;;;5.70;99.90;;;;;;4979746;28;20238;-94
2023/04/01 07:20:32;;;;;;;0.60;0.50;;;5.80;99.90;;;;;;4976260;28;20289;-92
2023/04/01 07:23:06;;;;;;;0.83;0.50;;;5.80;99.90;;;;;;4972388;28;20210;-90
2023/04/01 07:25:41;;;;;;;0.40;0.40;;;5.80;99.90;;;;;;4974882;28;20243;-92
2023/04/01 07:28:17;;;;;;;0.40;0.30;;;5.70;99.90;;;;;;4975038;28;20293;-92
2023/04/01 07:30:59;;;;;;;0.50;0.40;;;5.70;99.90;;;;;;4977919;28;20210;-91
2023/04/01 07:33:39;;;;;;;0.30;0.30;;;5.70;99.90;;;;;;4972729;28;20243;-92
2023/04/01 07:36:22;;;;;;;0.50;0.40;;;5.70;99.90;;;;;;4965651;28;20216;-91
2023/04/01 07:39:06;;;;;;;0.40;0.30;;;5.70;99.90;;;;;;4976459;28;20640;-91
2023/04/01 07:41:49;;;;;;;1.17;0.67;;;5.70;99.90;;;;;;4977974;28;20214;-92
2023/04/01 07:44:27;;;;;;;1.67;0.27;;;5.70;99.90;;;;;;4977065;28;20206;-91
2023/04/01 07:47:14;;;;;;;1.87;0.60;;;5.60;99.90;;;;;;4975101;28;20214;-91
2023/04/01 07:49:59;;;;;;;0.87;0.53;;;5.60;99.90;;;;;;4976088;28;20625;-93
2023/04/01 07:52:44;;;;;;;1.10;0.27;;;5.60;99.90;;;;;;4983181;28;20203;-92
2023/04/01 07:55:21;;;;;;;0.47;0.30;;;5.50;99.90;;;;;;4981377;28;20206;-94
2023/04/01 07:58:01;;;;;;;1.73;0.40;;;5.50;99.90;;;;;;4972318;28;20353;-93
2023/04/01 08:00:39;;;;;;;3.90;0.60;;;5.50;99.90;;;;;;4968107;28;20199;-93
2023/04/01 08:03:30;;;;;;;3.20;0.63;;;5.50;99.90;;;;;;4981373;28;20270;-93
2023/04/01 08:06:07;;;;;;;2.63;0.67;;;5.40;99.90;;;;;;4979224;28;20246;-92
2023/04/01 08:08:51;;;;;;;0.87;0.53;;;5.40;99.90;;;;;;4976834;28;20254;-92
2023/04/01 08:11:37;;;;;;;3.03;0.77;;;5.40;99.90;;;;;;4973968;28;20211;-93
2023/04/01 08:14:21;;;;;;;2.63;0.77;;;5.40;99.90;;;;;;4982389;28;20572;-92
2023/04/01 08:17:01;;;;;;;3.20;0.63;;;5.30;99.90;;;;;;4979836;28;20261;-91
2023/04/01 08:19:44;;;;;;;5.90;0.70;;;5.30;99.90;;;;;;4979896;28;20400;-93
2023/04/01 08:22:23;;;;;;;1.93;0.40;;;5.30;99.90;;;;;;4965576;28;20209;-91
2023/04/01 08:25:02;;;;;;;2.50;0.70;;;5.30;99.90;;;;;;4977236;28;20289;-90
2023/04/01 08:27:39;;;;;;;4.50;0.70;;;5.40;99.90;;;;;;4973905;28;20215;-91
2023/04/01 08:30:21;;;;;;;2.83;0.80;;;5.30;99.90;;;;;;4974589;28;20337;-92
2023/04/01 08:32:58;;;;;;;1.67;0.70;;;5.30;99.90;;;;;;4979780;28;20207;-91
2023/04/01 08:35:33;;;;;;;5.17;0.80;;;5.30;99.90;;;;;;4974934;28;20211;-91
2023/04/01 08:38:13;;;;;;;3.77;0.60;;;5.30;99.90;;;;;;4973858;28;20285;-91
2023/04/01 08:41:08;;;;;;;1.53;0.67;;;5.30;99.90;;;;;;4979128;28;20210;-93
2023/04/01 08:44:16;;;;;;;7.17;1.10;;;5.20;99.90;;;;;;4968544;28;20220;-92
2023/04/01 08:47:16;;;;;;;4.07;0.73;;;5.20;99.90;;;;;;4979415;28;20234;-91
2023/04/01 08:50:21;;;;;;;4.10;0.90;;;5.20;99.90;;;;;;4968368;28;20257;-92
2023/04/01 08:53:01;;;;;;;3.50;0.77;;;5.20;99.90;;;;;;4971088;28;20663;-91
2023/04/01 08:55:46;;;;;;;2.60;0.80;;;5.20;99.90;;;;;;4980649;28;20225;-93
2023/04/01 08:58:41;;;;;;;5.23;1.07;;;5.20;99.90;;;;;;4980793;28;20225;-92
2023/04/01 09:01:22;;;;;;;4.60;1.37;;;5.20;99.90;;;;;;4998804;28;20213;-93
2023/04/01 09:04:20;;;;;;;2.37;0.80;;;5.20;99.90;;;;;;5004835;28;20254;-93
2023/04/01 09:07:09;;;;;;;2.43;0.67;;;5.20;99.90;;;;;;4986605;28;20237;-90
2023/04/01 09:10:20;;;;;;;3.37;0.90;;;5.20;99.90;;;;;;4996196;28;20401;-91
2023/04/01 09:13:07;;;;;;;3.67;0.90;;;5.20;99.90;;;;;;4937553;29;20673;-92
2023/04/01 09:16:05;;;;;;;4.13;1.13;;;5.20;99.90;;;;;;4997667;28;20210;-93
2023/04/01 09:19:01;;;;;;;6.57;1.17;;;5.20;99.90;;;;;;4957651;28;20208;-92
2023/04/01 09:21:59;;;;;;;10.33;1.30;;;5.20;99.90;;;;;;4961079;28;20207;-93
2023/04/01 09:24:52;;;;;;;5.40;1.63;;;5.20;99.90;;;;;;4964599;28;20226;-93
2023/04/01 09:27:30;;;;;;;2.83;0.97;;;5.20;99.90;;;;;;4977327;28;20215;-92
2023/04/01 09:30:34;;;;;;;7.10;1.27;;;5.20;99.90;;;;;;4977275;28;20285;-88
2023/04/01 09:33:34;;;;;;;5.77;1.47;;;5.30;99.90;;;;;;4975794;28;20610;-91
2023/04/01 09:36:21;;;;;;;7.03;1.33;;;5.20;99.90;;;;;;4976998;28;20207;-91
2023/04/01 09:38:59;;;;;;;6.33;1.40;;;5.20;99.90;;;;;;4975939;28;20216;-91
2023/04/01 09:41:34;;;;;;;6.63;1.53;;;5.20;99.90;;;;;;4977010;28;20759;-91
2023/04/01 09:44:13;;;;;;;5.60;1.60;;;5.20;99.90;;;;;;4977846;28;20288;-91
2023/04/01 09:47:01;;;;;;;6.30;1.40;;;5.20;99.90;;;;;;4977106;28;20270;-91
2023/04/01 09:50:06;;;;;;;9.67;2.43;;;5.20;99.90;;;;;;4976240;28;20270;-90
2023/04/01 09:52:48;;;;;;;3.63;1.20;;;5.20;99.90;;;;;;4973616;28;20222;-92
2023/04/01 09:56:05;;;;;;;8.20;1.93;;;5.20;99.90;;;;;;4959722;28;20212;-90
2023/04/01 09:59:16;;;;;;;5.97;1.40;;;5.20;99.90;;;;;;4906206;28;20629;-92
2023/04/01 10:02:18;;;;;;;4.93;1.43;;;5.20;99.90;;;;;;4952908;28;20677;-91
2023/04/01 10:05:29;;;;;;;7.87;1.70;;;5.20;99.90;;;;;;4977340;28;20226;-94
2023/04/01 10:08:38;;;;;;;3.57;1.13;;;5.10;99.90;;;;;;4976958;28;20214;-92
2023/04/01 10:11:40;;;;;;;7.17;1.00;;;5.00;99.90;;;;;;4948618;28;20219;-92
2023/04/01 10:14:35;;;;;;;5.03;1.40;;;5.00;99.90;;;;;;4929314;28;20238;-91
2023/04/01 10:17:42;;;;;;;6.17;1.30;;;5.00;99.90;;;;;;4959245;28;20212;-91
2023/04/01 10:20:48;;;;;;;5.37;1.20;;;5.00;99.90;;;;;;4958084;28;20674;-92
2023/04/01 10:23:52;;;;;;;4.97;1.50;;;5.10;99.90;;;;;;4957280;28;20274;-91
2023/04/01 10:29:42;;;;;;;10.10;2.23;;;5.10;99.90;;;;;;5065071;27;2568629;-90
2023/04/01 10:33:06;;;;;;;3.27;1.50;;;5.20;99.90;;;;;;5132864;28;20198;-90
2023/04/01 10:36:08;;;;;;;4.80;1.37;;;5.20;99.90;;;;;;5125489;28;20216;-90
2023/04/01 10:39:15;;;;;;;5.13;1.20;;;5.20;99.90;;;;;;5107196;28;20621;-90
2023/04/01 10:42:24;;;;;;;5.47;1.33;;;5.10;99.90;;;;;;5105981;28;20201;-91
2023/04/01 10:45:29;;;;;;;6.43;1.40;;;5.10;99.90;;;;;;5131133;28;20258;-93
2023/04/01 10:48:20;;;;;;;8.17;1.70;;;5.10;99.90;;;;;;5131688;28;20221;-90
2023/04/01 10:51:17;;;;;;;6.07;1.43;;;5.10;99.90;;;;;;5133750;28;20197;-91
2023/04/01 10:54:15;;;;;;;7.07;1.23;;;5.10;99.90;;;;;;5133096;28;20201;-90
2023/04/01 10:56:58;;;;;;;5.03;1.17;;;5.10;99.90;;;;;;5133535;28;20206;-91
2023/04/01 10:59:57;;;;;;;7.13;1.97;;;5.10;99.90;;;;;;5121707;28;20217;-90
2023/04/01 11:03:16;;;;;;;15.57;2.00;;;5.10;99.90;;;;;;5112582;27;20218;-92
2023/04/01 11:06:30;;;;;;;6.77;1.23;;;5.00;99.90;;;;;;5155113;27;20215;-92
2023/04/01 11:09:39;;;;;;;2.87;1.37;;;5.00;99.90;;;;;;5149856;27;20215;-91
2023/04/01 11:12:49;;;;;;;10.10;1.53;;;4.90;99.90;;;;;;5067034;28;20232;-91
2023/04/01 11:15:55;;;;;;;3.10;1.43;;;4.90;99.90;;;;;;5128587;28;20202;-91
2023/04/01 11:19:06;;;;;;;7.73;1.43;;;4.90;99.90;;;;;;5139077;28;20250;-91
2023/04/01 11:22:09;;;;;;;7.40;1.17;;;4.80;99.90;;;;;;5142144;28;20217;-91
2023/04/01 11:25:11;;;;;;;5.00;1.30;;;4.80;99.90;;;;;;5135051;28;20224;-91
2023/04/01 11:28:19;;;;;;;6.10;1.20;;;4.80;99.90;;;;;;5133469;28;20282;-91
2023/04/01 11:31:14;;;;;;;8.10;1.90;;;4.80;99.90;;;;;;5115256;28;20202;-92
2023/04/01 11:33:52;;;;;;;14.47;1.90;;;4.80;99.90;;;;;;5129860;28;20220;-92
2023/04/01 11:36:35;;;;;;;10.80;2.00;;;4.80;99.90;;;;;;5135133;28;20205;-91
2023/04/01 11:39:23;;;;;;;10.53;1.97;;;4.80;99.90;;;;;;5097233;28;20729;-91
2023/04/01 11:42:06;;;;;;;7.17;1.70;;;4.80;99.90;;;;;;5106078;28;20214;-91
2023/04/01 11:44:47;;;;;;;7.47;1.87;;;4.80;99.90;;;;;;5099810;28;20198;-92
2023/04/01 11:47:49;;;;;;;10.43;1.90;;;4.80;99.90;;;;;;5123868;28;20255;-93
2023/04/01 11:50:28;;;;;;;7.37;1.60;;;4.80;99.90;;;;;;5120860;28;20619;-91
2023/04/01 11:53:15;;;;;;;5.17;1.77;;;4.80;99.90;;;;;;5112860;28;20207;-92
2023/04/01 11:56:00;;;;;;;6.27;1.57;;;4.80;99.90;;;;;;5111631;28;20248;-89
2023/04/01 11:59:09;;;;;;;6.63;2.23;;;4.80;99.90;;;;;;5125412;28;20194;-90
2023/04/01 12:01:55;;;;;;;8.13;2.20;;;4.80;99.90;;;;;;5090707;28;20210;-92
2023/04/01 12:05:00;;;;;;;8.00;1.50;;;4.80;99.90;;;;;;5123893;28;20213;-91
2023/04/01 12:07:57;;;;;;;3.90;1.50;;;4.80;99.90;;;;;;5125577;28;20202;-90
2023/04/01 12:10:35;;;;;;;9.57;1.77;;;4.80;99.90;;;;;;5117861;28;20215;-93
2023/04/01 12:13:20;;;;;;;3.30;1.07;;;4.70;99.90;;;;;;5107842;28;20210;-91
2023/04/01 12:16:07;;;;;;;5.23;1.20;;;4.70;99.90;;;;;;5099739;28;20206;-93
2023/04/01 12:18:46;;;;;;;3.90;1.13;;;4.70;99.90;;;;;;5096456;28;20213;-90
2023/04/01 12:21:27;;;;;;;2.20;1.20;;;4.70;99.90;;;;;;5115500;28;20251;-93
2023/04/01 12:24:36;;;;;;;3.43;0.90;;;4.60;99.90;;;;;;5117346;28;20282;-91
2023/04/01 12:27:34;;;;;;;3.53;1.00;;;4.60;99.90;;;;;;5110078;28;20555;-91
2023/04/01 12:30:38;;;;;;;5.53;0.70;;;4.50;99.90;;;;;;5115408;28;20223;-92
2023/04/01 12:33:40;;;;;;;3.80;1.20;;;4.50;99.90;;;;;;5097031;28;20268;-91
2023/04/01 12:36:20;;;;;;;5.77;1.10;;;4.40;99.90;;;;;;5099483;28;20214;-91
2023/04/01 12:39:09;;;;;;;4.60;0.90;;;4.40;99.90;;;;;;5082069;28;20252;-92
2023/04/01 12:41:50;;;;;;;3.30;1.00;;;4.40;99.90;;;;;;5130979;28;20198;-90
2023/04/01 12:44:49;;;;;;;4.60;1.20;;;4.40;99.90;;;;;;5128951;28;20202;-93
2023/04/01 12:47:55;;;;;;;4.80;0.97;;;4.30;99.90;;;;;;5119238;28;20199;-93
2023/04/01 12:50:58;;;;;;;4.50;1.53;;;4.30;99.90;;;;;;5061165;28;20260;-90
2023/04/01 12:53:44;;;;;;;5.60;1.40;;;4.30;99.90;;;;;;5102447;28;20206;-92
2023/04/01 12:56:23;;;;;;;3.73;1.23;;;4.40;99.90;;;;;;5102062;28;20290;-92
2023/04/01 12:59:18;;;;;;;3.30;1.20;;;4.40;99.90;;;;;;5098884;28;20212;-90
2023/04/01 13:02:12;;;;;;;3.77;1.33;;;4.40;99.90;;;;;;5094915;28;20679;-89
2023/04/01 13:05:10;;;;;;;5.10;1.40;;;4.40;99.90;;;;;;5096263;28;20663;-91
2023/04/01 13:08:12;;;;;;;5.47;1.43;;;4.40;99.90;;;;;;5106585;28;20203;-92
2023/04/01 13:11:03;;;;;;;2.90;1.23;;;4.30;99.90;;;;;;5100233;28;20210;-91
2023/04/01 13:14:07;;;;;;;5.23;1.27;;;4.40;99.90;;;;;;5101725;28;20207;-90
2023/04/01 13:16:57;;;;;;;6.07;1.20;;;4.30;99.90;;;;;;5096011;28;20211;-91
2023/04/01 13:19:36;;;;;;;3.90;1.13;;;4.30;99.90;;;;;;5113560;28;20206;-92
2023/04/01 13:22:17;;;;;;;4.73;1.17;;;4.30;99.90;;;;;;5119418;28;20217;-92
2023/04/01 13:25:00;;;;;;;4.70;1.47;;;4.30;99.90;;;;;;5101216;28;20655;-91
2023/04/01 13:27:37;;;;;;;3.70;1.10;;;4.20;99.90;;;;;;5099769;28;20207;-90
2023/04/01 13:30:27;;;;;;;5.93;1.00;;;4.20;99.90;;;;;;5098417;28;20689;-90
2023/04/01 13:33:07;;;;;;;6.17;1.93;;;4.30;99.90;;;;;;5112572;28;20674;-90
2023/04/01 13:35:48;;;;;;;4.17;1.17;;;4.30;99.90;;;;;;5098943;28;20216;-88
2023/04/01 13:38:47;;;;;;;5.70;1.10;;;4.30;99.90;;;;;;5115202;28;20206;-91
2023/04/01 13:41:32;;;;;;;6.60;1.80;;;4.30;99.90;;;;;;5114964;28;20222;-90
2023/04/01 13:44:11;;;;;;;5.87;1.17;;;4.30;99.90;;;;;;5115439;28;20197;-90
2023/04/01 13:47:10;;;;;;;5.60;1.30;;;4.30;99.90;;;;;;5115042;28;20647;-90
2023/04/01 13:50:05;;;;;;;3.70;1.10;;;4.30;99.90;;;;;;5103064;28;20230;-89
2023/04/01 13:53:05;;;;;;;6.07;1.23;;;4.40;99.90;;;;;;5102616;28;20214;-90
2023/04/01 13:55:56;;;;;;;2.63;1.20;;;4.40;99.90;;;;;;5099944;28;20210;-90
2023/04/01 13:58:58;;;;;;;3.70;1.73;;;4.40;99.90;;;;;;5113970;28;20206;-91
2023/04/01 14:01:36;;;;;;;4.70;1.10;;;4.40;99.90;;;;;;5114535;28;20206;-89
2023/04/01 14:04:31;;;;;;;2.87;1.10;;;4.40;99.90;;;;;;5113258;28;20210;-89
2023/04/01 14:07:15;;;;;;;3.37;1.20;;;4.50;99.90;;;;;;5112214;28;20214;-90
2023/04/01 14:10:16;;;;;;;4.93;1.57;;;4.40;99.90;;;;;;5094829;28;20229;-91
2023/04/01 14:12:58;;;;;;;3.30;1.53;;;4.40;99.90;;;;;;5094391;28;20255;-90
2023/04/01 14:16:17;;;;;;;2.13;1.00;;;4.40;99.90;;;;;;5096048;28;20243;-91
2023/04/01 14:19:15;;;;;;;2.70;1.30;;;4.30;99.90;;;;;;5094143;28;20206;-91
2023/04/01 14:21:54;;;;;;;4.33;0.90;;;4.40;99.90;;;;;;5060551;28;20203;-91
2023/04/01 14:24:45;;;;;;;3.00;0.97;;;4.30;99.90;;;;;;5097504;28;20210;-92
2023/04/01 14:27:38;;;;;;;3.63;1.23;;;4.30;99.90;;;;;;5097449;28;20677;-91
2023/04/01 14:30:31;;;;;;;5.40;1.20;;;4.20;99.90;;;;;;5111232;28;20709;-92
2023/04/01 14:33:19;;;;;;;3.83;1.10;;;4.20;99.90;;;;;;5106976;28;20206;-90
2023/04/01 14:36:15;;;;;;;5.53;1.53;;;4.30;99.90;;;;;;5095289;28;20210;-91
2023/04/01 14:39:02;;;;;;;5.60;1.47;;;4.30;99.90;;;;;;5113585;28;20206;-90
2023/04/01 14:41:47;;;;;;;5.60;0.97;;;4.30;99.90;;;;;;5105036;28;20667;-92
2023/04/01 14:44:45;;;;;;;3.43;0.93;;;4.30;99.90;;;;;;5111122;28;20210;-91
2023/04/01 14:47:47;;;;;;;4.43;1.00;;;4.40;99.90;;;;;;5105948;28;20343;-93
2023/04/01 14:50:22;;;;;;;5.20;0.93;;;4.40;99.90;;;;;;5094715;28;20325;-93
2023/04/01 14:53:26;;;;;;;2.23;1.10;;;4.40;99.90;;;;;;5094568;28;20237;-91
2023/04/01 14:55:59;;;;;;;3.43;1.17;;;4.50;99.90;;;;;;5093423;28;20236;-89
2023/04/01 14:58:46;;;;;;;2.73;0.87;;;4.50;99.90;;;;;;5112481;28;20250;-90
2023/04/01 15:01:42;;;;;;;2.50;1.20;;;4.50;99.90;;;;;;5114229;28;20214;-90